Time;durP1;ratioP1;P1;durP2;ratioP2;P2;SDS_P1;SDS_P2;PMS_P1;PMS_P2;Temp;Humidity;BMP_temperature;BMP_pressure;BME280_temperature;BME280_humidity;BME280_pressure;Samples;Min_cycle;Max_cycle;Signal;HPM_P1;HPM_P2
2023/05/25 00:02:06;;;;;;;14.20;8.30;;;;;;;12.92;82.10;100211.84;105838;1260;59714;-64
2023/05/25 00:04:57;;;;;;;16.60;8.60;;;;;;;12.90;82.56;100210.39;105631;1260;73898;-64
2023/05/25 00:07:46;;;;;;;16.40;8.80;;;;;;;12.89;83.07;100208.00;105817;1258;69346;-67
2023/05/25 00:10:35;;;;;;;12.80;7.80;;;;;;;12.87;83.43;100210.64;105630;1263;72152;-66
2023/05/25 00:13:24;;;;;;;13.70;7.80;;;;;;;12.85;84.15;100211.72;105694;1257;59721;-66
2023/05/25 00:16:12;;;;;;;14.10;7.30;;;;;;;12.85;84.88;100213.32;105704;1261;59579;-66
2023/05/25 00:19:02;;;;;;;12.40;7.40;;;;;;;12.85;84.93;100216.73;105768;1257;74562;-66
2023/05/25 00:21:51;;;;;;;13.20;7.60;;;;;;;12.84;85.42;100214.67;105708;1262;68403;-65
2023/05/25 00:24:40;;;;;;;15.70;7.60;;;;;;;12.84;86.12;100219.64;105651;1259;71760;-64
2023/05/25 00:27:30;;;;;;;13.70;8.30;;;;;;;12.85;86.69;100219.00;105656;1264;59682;-66
2023/05/25 00:30:18;;;;;;;14.70;7.70;;;;;;;12.85;86.89;100221.49;105620;1257;59687;-64
2023/05/25 00:33:09;;;;;;;17.40;8.90;;;;;;;12.85;87.27;100220.44;105664;1257;72003;-65
2023/05/25 00:35:59;;;;;;;12.90;6.50;;;;;;;12.85;87.70;100219.53;105651;1261;68577;-65
2023/05/25 00:38:49;;;;;;;15.90;8.40;;;;;;;12.85;87.63;100216.84;105644;1261;73454;-65
2023/05/25 00:41:40;;;;;;;14.10;8.80;;;;;;;12.86;87.66;100220.86;105724;1260;59647;-65
2023/05/25 00:44:30;;;;;;;14.10;8.50;;;;;;;12.88;87.64;100224.14;105677;1257;61033;-65
2023/05/25 00:47:20;;;;;;;15.20;8.50;;;;;;;12.88;87.85;100225.52;105837;1260;72652;-65
2023/05/25 00:50:13;;;;;;;16.40;8.50;;;;;;;12.87;87.86;100230.77;105733;1260;66945;-64
2023/05/25 00:53:02;;;;;;;18.50;9.10;;;;;;;12.86;87.98;100236.00;105650;1260;72317;-65
2023/05/25 00:56:22;;;;;;;17.50;10.20;;;;;;;12.85;88.01;100235.79;105370;1257;59646;-63
2023/05/25 00:59:16;;;;;;;15.80;9.50;;;;;;;12.82;88.17;100235.32;105759;1259;59621;-63
2023/05/25 01:02:10;;;;;;;15.60;8.30;;;;;;;12.79;88.28;100236.45;105637;1260;72938;-65
2023/05/25 01:05:05;;;;;;;15.40;9.20;;;;;;;12.75;88.97;100234.61;105644;1257;66990;-64
2023/05/25 01:08:00;;;;;;;15.60;9.20;;;;;;;12.71;89.50;100237.29;105605;1255;72651;-64
2023/05/25 01:10:51;;;;;;;15.00;8.30;;;;;;;12.67;89.66;100238.20;105558;1257;59648;-66
2023/05/25 01:13:40;;;;;;;18.00;8.90;;;;;;;12.60;90.12;100231.44;105795;1259;59633;-66
2023/05/25 01:16:29;;;;;;;16.60;9.50;;;;;;;12.55;90.77;100230.73;105373;1260;73565;-64
2023/05/25 01:19:18;;;;;;;18.80;9.80;;;;;;;12.53;90.60;100230.25;105531;1257;68516;-63
2023/05/25 01:22:14;;;;;;;18.20;10.10;;;;;;;12.51;90.89;100230.95;105416;1257;73755;-66
2023/05/25 01:25:21;;;;;;;17.40;10.00;;;;;;;12.48;91.08;100229.91;105677;1264;59634;-65
2023/05/25 01:28:27;;;;;;;14.50;8.30;;;;;;;12.41;91.19;100223.91;105698;1257;60323;-66
2023/05/25 01:31:21;;;;;;;16.20;9.50;;;;;;;12.40;91.47;100229.92;105627;1257;71797;-67
2023/05/25 01:34:10;;;;;;;17.60;10.20;;;;;;;12.35;91.90;100231.70;105778;1261;66985;-66
2023/05/25 01:37:00;;;;;;;20.10;10.70;;;;;;;12.33;92.09;100232.42;105586;1260;71651;-66
2023/05/25 01:39:49;;;;;;;17.70;10.00;;;;;;;12.30;92.06;100231.05;105924;1261;60220;-67
2023/05/25 01:42:38;;;;;;;14.50;9.40;;;;;;;12.28;92.09;100236.56;105645;1257;59607;-64
2023/05/25 01:45:28;;;;;;;18.90;9.70;;;;;;;12.26;92.33;100240.08;105508;1257;72479;-66
2023/05/25 01:48:36;;;;;;;19.70;9.00;;;;;;;12.23;92.31;100239.27;105904;1257;67954;-66
2023/05/25 01:51:59;;;;;;;16.70;9.50;;;;;;;12.21;92.39;100243.49;105697;1260;72671;-67
2023/05/25 01:54:56;;;;;;;16.80;9.50;;;;;;;12.17;93.25;100247.27;105602;1256;59715;-66
2023/05/25 01:57:49;;;;;;;17.20;9.90;;;;;;;12.12;93.15;100250.11;105645;1257;60359;-66
2023/05/25 02:00:40;;;;;;;18.40;10.50;;;;;;;12.10;93.11;100253.33;105580;1263;73614;-66
2023/05/25 02:03:28;;;;;;;19.10;10.70;;;;;;;12.07;93.00;100256.89;105772;1256;66064;-64
2023/05/25 02:06:17;;;;;;;14.60;9.20;;;;;;;12.04;93.36;100256.15;105452;1256;74079;-64
2023/05/25 02:09:05;;;;;;;17.30;9.20;;;;;;;12.01;93.29;100253.67;105890;1259;59597;-66
2023/05/25 02:11:53;;;;;;;18.30;9.10;;;;;;;11.98;93.49;100250.52;105629;1259;59727;-66
2023/05/25 02:14:42;;;;;;;16.60;8.60;;;;;;;11.96;93.51;100249.13;105879;1256;72963;-65
2023/05/25 02:17:30;;;;;;;17.00;9.40;;;;;;;11.92;93.69;100240.46;105670;1259;68844;-63
2023/05/25 02:20:19;;;;;;;16.90;9.50;;;;;;;11.91;93.11;100243.60;105709;1256;71958;-63
2023/05/25 02:23:09;;;;;;;16.20;9.10;;;;;;;11.88;93.32;100242.56;105747;1260;60200;-64
2023/05/25 02:25:58;;;;;;;17.90;10.20;;;;;;;11.86;93.71;100242.56;105716;1256;60574;-65
2023/05/25 02:28:46;;;;;;;15.20;8.60;;;;;;;11.82;93.90;100246.08;105646;1257;73537;-65
2023/05/25 02:31:36;;;;;;;16.70;9.10;;;;;;;11.78;93.98;100247.14;105406;1264;67363;-66
2023/05/25 02:34:24;;;;;;;20.00;10.20;;;;;;;11.74;94.28;100248.68;105854;1257;72807;-64
2023/05/25 02:37:13;;;;;;;22.80;10.30;;;;;;;11.71;94.72;100245.05;105819;1260;59611;-64
2023/05/25 02:40:02;;;;;;;20.20;10.80;;;;;;;11.67;95.21;100245.50;105926;1256;60532;-65
2023/05/25 02:42:51;;;;;;;20.80;10.90;;;;;;;11.63;95.73;100247.42;105643;1257;72076;-65
2023/05/25 02:45:39;;;;;;;19.00;10.20;;;;;;;11.60;95.46;100246.75;105670;1259;66874;-65
2023/05/25 02:48:27;;;;;;;16.90;10.20;;;;;;;11.57;95.63;100243.96;105472;1257;73318;-66
2023/05/25 02:51:15;;;;;;;19.30;10.60;;;;;;;11.55;95.92;100246.42;105760;1256;59697;-67
2023/05/25 02:54:05;;;;;;;19.40;10.60;;;;;;;11.52;96.01;100245.40;105751;1256;60098;-63
2023/05/25 02:56:53;;;;;;;15.60;8.50;;;;;;;11.52;96.04;100245.80;105751;1257;73664;-65
2023/05/25 02:59:42;;;;;;;20.50;10.60;;;;;;;11.51;96.15;100243.05;105700;1259;67121;-66
2023/05/25 03:02:32;;;;;;;19.70;9.70;;;;;;;11.49;95.91;100241.96;105738;1261;72215;-65
2023/05/25 03:05:20;;;;;;;20.50;10.40;;;;;;;11.50;96.23;100242.97;105606;1260;60377;-64
2023/05/25 03:08:09;;;;;;;18.20;9.80;;;;;;;11.50;96.10;100243.09;105833;1257;60818;-66
2023/05/25 03:10:58;;;;;;;18.00;10.00;;;;;;;11.53;95.85;100241.83;105771;1259;73686;-66
2023/05/25 03:13:46;;;;;;;18.70;10.80;;;;;;;11.55;95.77;100244.33;105437;1260;68528;-66
2023/05/25 03:16:37;;;;;;;24.30;11.90;;;;;;;11.55;95.92;100239.83;105694;1261;73132;-64
2023/05/25 03:19:26;;;;;;;18.10;10.20;;;;;;;11.56;95.60;100244.02;105623;1256;59766;-66
2023/05/25 03:22:14;;;;;;;18.20;10.20;;;;;;;11.57;95.72;100245.77;105787;1259;59633;-65
2023/05/25 03:25:03;;;;;;;19.20;10.80;;;;;;;11.56;95.69;100255.42;105635;1257;73434;-65
2023/05/25 03:27:52;;;;;;;19.10;11.10;;;;;;;11.54;95.42;100253.23;106440;1258;66901;-68
2023/05/25 03:30:41;;;;;;;20.10;10.60;;;;;;;11.54;95.19;100249.00;105853;1260;73419;-66
2023/05/25 03:33:30;;;;;;;17.70;8.90;;;;;;;11.54;95.53;100244.59;105962;1257;59721;-67
2023/05/25 03:36:18;;;;;;;16.50;8.90;;;;;;;11.54;95.82;100244.57;105315;1253;61591;-67
2023/05/25 03:39:08;;;;;;;17.00;8.70;;;;;;;11.56;95.78;100249.92;105776;1257;72934;-68
2023/05/25 03:41:58;;;;;;;22.20;9.90;;;;;;;11.59;95.49;100249.33;105571;1260;67108;-66
2023/05/25 03:44:46;;;;;;;19.00;8.60;;;;;;;11.65;95.35;100246.38;105866;1255;72475;-65
2023/05/25 03:47:36;;;;;;;17.70;9.50;;;;;;;11.69;95.12;100250.67;105830;1254;59580;-68
2023/05/25 03:50:24;;;;;;;22.70;10.80;;;;;;;11.72;94.86;100251.14;105847;1258;61545;-69
2023/05/25 03:53:13;;;;;;;19.90;10.20;;;;;;;11.76;94.91;100249.27;105563;1259;73564;-67
2023/05/25 03:56:02;;;;;;;18.50;9.60;;;;;;;11.81;94.71;100244.41;105749;1259;66362;-67
2023/05/25 03:58:51;;;;;;;15.70;8.20;;;;;;;11.88;94.15;100242.61;105564;1259;71456;-66
2023/05/25 04:01:40;;;;;;;19.10;9.60;;;;;;;11.92;93.91;100237.80;105944;1253;59740;-68
2023/05/25 04:04:28;;;;;;;20.50;9.40;;;;;;;12.00;93.84;100235.24;106047;1254;61347;-68
2023/05/25 04:07:19;;;;;;;17.50;9.50;;;;;;;12.09;93.10;100235.02;105787;1256;73072;-66
2023/05/25 04:10:07;;;;;;;18.30;9.00;;;;;;;12.18;92.92;100239.48;105860;1257;68630;-65
2023/05/25 04:12:56;;;;;;;16.30;9.10;;;;;;;12.28;92.60;100250.05;105726;1254;72743;-67
2023/05/25 04:15:45;;;;;;;18.50;9.10;;;;;;;12.36;91.85;100250.52;105808;1254;59791;-66
2023/05/25 04:18:38;;;;;;;19.60;10.00;;;;;;;12.40;91.67;100252.84;105569;1260;60071;-64
2023/05/25 04:21:29;;;;;;;17.80;8.90;;;;;;;12.46;91.58;100246.70;105746;1253;72222;-67
2023/05/25 04:24:18;;;;;;;16.50;8.50;;;;;;;12.54;91.26;100244.92;105526;1257;66647;-67
2023/05/25 04:27:07;;;;;;;15.90;8.10;;;;;;;12.62;90.73;100243.69;105942;1253;72513;-66
2023/05/25 04:29:57;;;;;;;17.50;9.00;;;;;;;12.72;90.52;100247.91;105770;1254;59649;-68
2023/05/25 04:33:06;;;;;;;14.40;7.60;;;;;;;12.84;90.08;100258.41;105712;1260;59709;-67
2023/05/25 04:36:09;;;;;;;14.30;7.20;;;;;;;12.95;89.56;100260.52;106253;1254;72913;-68
2023/05/25 04:39:01;;;;;;;13.50;7.10;;;;;;;13.11;88.83;100260.27;105981;1254;66234;-67
2023/05/25 04:41:51;;;;;;;15.10;7.30;;;;;;;13.32;87.67;100255.86;105760;1257;72152;-68
2023/05/25 04:44:40;;;;;;;14.80;7.50;;;;;;;13.61;86.45;100253.68;106064;1263;60550;-72
2023/05/25 04:47:29;;;;;;;15.80;6.30;;;;;;;14.11;84.82;100250.02;106120;1254;59638;-71
2023/05/25 04:50:18;;;;;;;12.50;6.40;;;;;;;14.62;81.45;100251.81;105844;1259;71478;-70
2023/05/25 04:53:10;;;;;;;15.70;6.60;;;;;;;15.06;78.93;100249.04;105657;1262;67658;-66
2023/05/25 04:56:00;;;;;;;12.40;5.80;;;;;;;15.61;76.77;100249.27;105746;1259;72109;-66
2023/05/25 04:58:48;;;;;;;12.90;5.70;;;;;;;16.13;74.45;100249.23;105497;1264;59593;-68
2023/05/25 05:01:41;;;;;;;13.70;6.10;;;;;;;16.44;71.86;100252.85;106161;1258;59742;-68
2023/05/25 05:04:32;;;;;;;14.10;5.80;;;;;;;16.70;71.05;100249.14;105478;1262;73625;-65
2023/05/25 05:07:22;;;;;;;12.70;5.40;;;;;;;17.12;69.34;100248.86;105509;1259;68924;-68
2023/05/25 05:10:10;;;;;;;11.70;5.10;;;;;;;17.60;67.06;100246.48;105392;1258;72629;-69
2023/05/25 05:13:02;;;;;;;12.60;5.10;;;;;;;18.02;65.88;100251.65;106008;1259;59814;-69
2023/05/25 05:15:50;;;;;;;10.00;4.70;;;;;;;18.48;64.32;100248.70;105542;1262;59717;-68
2023/05/25 05:18:39;;;;;;;9.70;5.00;;;;;;;19.10;61.63;100249.04;105270;1263;73077;-70
2023/05/25 05:21:28;;;;;;;12.10;5.10;;;;;;;19.68;59.35;100246.34;105508;1259;68188;-68
2023/05/25 05:24:17;;;;;;;29.70;5.60;;;;;;;20.17;56.98;100244.92;105691;1254;73574;-68
2023/05/25 05:27:06;;;;;;;22.50;5.30;;;;;;;20.79;55.54;100238.26;106578;1260;59726;-68
2023/05/25 05:30:02;;;;;;;10.20;4.70;;;;;;;21.38;52.81;100238.82;106195;1259;59777;-68
2023/05/25 05:32:50;;;;;;;9.40;3.70;;;;;;;21.83;51.05;100241.70;105521;1254;71600;-68
2023/05/25 05:35:41;;;;;;;8.90;4.30;;;;;;;22.40;49.53;100240.77;106800;1252;69298;-71
2023/05/25 05:38:33;;;;;;;11.10;4.70;;;;;;;22.84;48.28;100240.73;107045;1254;72311;-70
2023/05/25 05:41:22;;;;;;;8.60;3.70;;;;;;;23.35;47.04;100242.55;105907;1254;59636;-69
2023/05/25 05:44:11;;;;;;;9.60;3.90;;;;;;;23.72;45.47;100248.58;105766;1258;60960;-74
2023/05/25 05:47:00;;;;;;;8.40;3.40;;;;;;;24.23;44.60;100247.96;105059;1255;1004217;-73
2023/05/25 05:49:49;;;;;;;7.90;3.60;;;;;;;24.63;43.31;100250.54;105623;1254;68142;-73
2023/05/25 05:52:37;;;;;;;11.00;3.90;;;;;;;25.05;41.91;100249.55;105531;1257;71054;-71
2023/05/25 05:55:26;;;;;;;9.70;3.90;;;;;;;25.47;41.04;100251.71;106065;1254;59688;-76
2023/05/25 05:58:13;;;;;;;8.20;3.30;;;;;;;25.97;40.03;100260.45;106184;1257;60145;-73
2023/05/25 06:01:03;;;;;;;7.70;3.20;;;;;;;26.48;39.46;100263.44;106166;1253;71424;-74
2023/05/25 06:03:53;;;;;;;8.20;3.30;;;;;;;26.85;38.25;100257.71;106149;1257;67870;-77
2023/05/25 06:06:42;;;;;;;9.00;4.10;;;;;;;27.23;37.21;100258.02;105815;1259;72726;-78
2023/05/25 06:09:33;;;;;;;9.30;3.60;;;;;;;27.59;36.54;100259.09;106156;1259;59750;-76
2023/05/25 06:12:21;;;;;;;8.70;3.50;;;;;;;27.93;35.99;100259.42;106205;1254;59590;-77
2023/05/25 06:15:11;;;;;;;8.90;3.30;;;;;;;28.28;35.12;100254.33;106236;1253;71571;-75
2023/05/25 06:17:59;;;;;;;8.40;3.40;;;;;;;28.70;34.67;100264.08;106140;1253;66668;-80
2023/05/25 06:20:51;;;;;;;10.70;3.30;;;;;;;28.95;33.78;100269.34;105557;1253;71439;-77
2023/05/25 06:23:40;;;;;;;9.00;3.50;;;;;;;29.15;33.40;100271.55;105601;1254;60031;-75
2023/05/25 06:26:29;;;;;;;11.90;3.20;;;;;;;29.39;32.76;100274.48;105650;1254;60132;-73
2023/05/25 06:29:17;;;;;;;7.80;3.10;;;;;;;29.29;32.10;100280.81;105737;1254;72419;-73
2023/05/25 06:32:09;;;;;;;7.70;3.10;;;;;;;29.30;32.47;100283.10;105726;1262;67778;-72
2023/05/25 06:34:59;;;;;;;8.90;3.20;;;;;;;29.49;32.15;100281.77;105804;1254;72622;-73
2023/05/25 06:37:49;;;;;;;8.70;3.40;;;;;;;29.65;31.75;100276.91;105697;1259;59591;-74
2023/05/25 06:40:38;;;;;;;8.80;3.10;;;;;;;29.81;31.30;100279.78;105740;1262;59595;-73
2023/05/25 06:43:28;;;;;;;9.10;3.30;;;;;;;30.03;30.90;100284.59;105932;1254;72948;-73
2023/05/25 06:46:32;;;;;;;8.70;3.30;;;;;;;30.26;30.68;100288.84;106320;1261;67995;-75
2023/05/25 06:49:22;;;;;;;11.20;3.80;;;;;;;30.38;30.27;100291.48;105926;1264;71104;-74
2023/05/25 06:52:10;;;;;;;8.80;2.90;;;;;;;30.47;29.89;100299.53;106468;1263;59579;-72
2023/05/25 06:55:02;;;;;;;8.40;3.70;;;;;;;30.47;29.63;100301.29;106222;1263;59971;-73
2023/05/25 06:57:51;;;;;;;8.80;3.40;;;;;;;30.38;29.44;100310.75;105609;1260;71532;-72
2023/05/25 07:00:40;;;;;;;8.70;3.30;;;;;;;30.32;29.56;100311.34;105371;1259;66619;-73
2023/05/25 07:03:29;;;;;;;8.60;2.90;;;;;;;30.58;29.58;100305.27;105762;1260;71440;-72
2023/05/25 07:06:18;;;;;;;9.40;3.40;;;;;;;30.96;29.44;100306.98;105458;1259;59658;-71
2023/05/25 07:09:06;;;;;;;10.10;3.60;;;;;;;31.44;28.60;100300.73;105530;1260;59441;-71
2023/05/25 07:11:54;;;;;;;8.30;3.00;;;;;;;31.62;28.55;100306.30;105454;1263;73179;-75
2023/05/25 07:14:46;;;;;;;8.40;3.30;;;;;;;31.92;28.13;100308.56;105436;1259;68026;-72
2023/05/25 07:17:35;;;;;;;11.60;3.40;;;;;;;32.22;27.95;100303.78;105543;1257;72771;-73
2023/05/25 07:20:24;;;;;;;9.60;3.50;;;;;;;32.54;27.39;100308.09;105768;1259;59669;-74
2023/05/25 07:23:13;;;;;;;8.00;3.10;;;;;;;32.47;26.83;100311.27;105754;1254;60503;-76
2023/05/25 07:26:02;;;;;;;8.30;3.20;;;;;;;31.77;27.37;100302.30;105833;1254;72946;-75
2023/05/25 07:28:54;;;;;;;9.50;3.30;;;;;;;31.12;28.48;100309.48;105667;1254;67420;-76
2023/05/25 07:31:47;;;;;;;9.20;3.50;;;;;;;31.10;28.88;100315.24;105720;1256;71457;-76
2023/05/25 07:34:35;;;;;;;9.30;3.00;;;;;;;31.01;28.90;100315.71;105690;1260;59721;-74
2023/05/25 07:37:24;;;;;;;8.50;3.00;;;;;;;30.90;28.70;100314.64;105705;1254;60091;-74
2023/05/25 07:40:12;;;;;;;9.30;3.10;;;;;;;30.69;28.67;100316.12;105841;1254;71436;-74
2023/05/25 07:43:00;;;;;;;9.00;3.80;;;;;;;31.14;28.75;100318.39;105771;1259;68015;-74
2023/05/25 07:45:51;;;;;;;9.60;3.90;;;;;;;31.68;27.86;100321.33;105789;1261;72778;-74
2023/05/25 07:48:39;;;;;;;9.10;3.10;;;;;;;32.23;27.04;100319.58;105746;1261;59744;-78
2023/05/25 07:51:28;;;;;;;9.40;3.10;;;;;;;32.69;26.66;100327.80;105783;1255;59263;-74
2023/05/25 07:54:20;;;;;;;8.20;2.80;;;;;;;33.00;26.18;100325.14;106174;1255;73082;-75
2023/05/25 07:57:09;;;;;;;8.50;3.10;;;;;;;33.13;25.48;100331.62;106000;1257;66858;-75
2023/05/25 07:59:57;;;;;;;8.60;2.90;;;;;;;33.01;25.21;100336.42;105859;1260;73792;-74
2023/05/25 08:02:46;;;;;;;8.00;3.10;;;;;;;32.93;25.44;100332.84;105791;1261;59690;-72
2023/05/25 08:05:39;;;;;;;9.10;3.30;;;;;;;32.77;25.28;100336.15;105933;1254;60557;-72
2023/05/25 08:08:27;;;;;;;7.50;2.50;;;;;;;32.14;26.11;100331.58;105891;1254;71799;-75
2023/05/25 08:11:16;;;;;;;7.70;3.10;;;;;;;31.10;27.12;100336.23;105989;1259;68901;-74
2023/05/25 08:14:05;;;;;;;8.60;3.10;;;;;;;29.94;28.65;100335.13;105872;1254;72844;-75
2023/05/25 08:16:53;;;;;;;8.40;3.20;;;;;;;29.10;30.24;100340.39;105872;1258;60400;-75
2023/05/25 08:19:42;;;;;;;8.40;3.20;;;;;;;28.86;31.11;100339.94;105844;1256;61386;-75
2023/05/25 08:22:30;;;;;;;8.10;3.20;;;;;;;28.89;30.83;100344.67;105841;1254;71078;-74
2023/05/25 08:25:19;;;;;;;8.30;3.70;;;;;;;28.56;31.26;100350.30;105778;1254;67976;-74
2023/05/25 08:28:07;;;;;;;7.90;3.30;;;;;;;28.69;31.40;100350.99;105846;1254;72433;-75
2023/05/25 08:30:57;;;;;;;8.30;3.20;;;;;;;29.04;30.82;100356.02;105835;1254;59733;-75
2023/05/25 08:33:45;;;;;;;8.30;3.40;;;;;;;29.60;30.32;100355.27;105872;1259;59540;-74
2023/05/25 08:36:35;;;;;;;7.90;2.90;;;;;;;30.22;29.36;100359.51;105573;1260;74139;-75
2023/05/25 08:39:24;;;;;;;9.10;3.60;;;;;;;31.10;28.60;100356.25;106390;1254;66354;-76
2023/05/25 08:42:14;;;;;;;8.00;3.00;;;;;;;31.85;27.53;100356.28;105976;1254;73689;-77
2023/05/25 08:45:04;;;;;;;7.60;3.00;;;;;;;32.37;26.76;100354.61;106290;1254;59733;-76
2023/05/25 08:47:58;;;;;;;7.00;2.70;;;;;;;32.48;26.83;100346.20;106000;1259;59620;-75
2023/05/25 08:50:48;;;;;;;7.20;3.10;;;;;;;32.12;26.67;100358.91;105935;1256;71789;-77
2023/05/25 08:53:39;;;;;;;7.10;2.70;;;;;;;31.78;27.22;100359.28;105970;1262;69101;-76
2023/05/25 08:56:33;;;;;;;7.70;2.90;;;;;;;31.40;27.33;100367.30;105894;1258;73666;-76
2023/05/25 09:00:14;;;;;;;10.10;3.10;;;;;;;31.12;27.94;100370.88;105889;1254;59619;-76
2023/05/25 09:03:30;;;;;;;7.30;3.00;;;;;;;30.89;28.52;100368.17;105633;1263;59549;-77
2023/05/25 09:06:19;;;;;;;7.90;3.10;;;;;;;30.89;28.74;100370.32;105614;1265;73155;-77
2023/05/25 09:09:08;;;;;;;7.70;3.00;;;;;;;31.47;28.27;100370.05;105677;1262;67780;-75
2023/05/25 09:11:57;;;;;;;7.70;3.00;;;;;;;32.10;27.34;100367.91;105446;1262;71401;-75
2023/05/25 09:14:46;;;;;;;7.30;2.60;;;;;;;32.42;26.72;100367.95;105443;1265;59607;-75
2023/05/25 09:17:35;;;;;;;7.40;2.50;;;;;;;32.74;26.35;100373.59;105489;1262;59716;-73
2023/05/25 09:20:30;;;;;;;7.40;2.80;;;;;;;32.26;26.99;100371.48;105391;1262;71441;-75
2023/05/25 09:23:19;;;;;;;8.60;3.00;;;;;;;31.25;27.92;100380.24;105324;1265;66646;-73
2023/05/25 09:26:08;;;;;;;9.10;3.20;;;;;;;30.53;28.77;100374.31;105777;1263;72699;-74
2023/05/25 09:28:57;;;;;;;10.10;3.40;;;;;;;30.43;29.23;100370.05;105474;1262;59625;-74
2023/05/25 09:31:46;;;;;;;8.70;2.90;;;;;;;30.74;28.73;100368.94;105463;1261;60311;-75
2023/05/25 09:34:34;;;;;;;8.90;2.80;;;;;;;31.23;28.13;100373.70;105636;1262;72947;-72
2023/05/25 09:37:23;;;;;;;6.80;2.90;;;;;;;31.58;27.32;100369.85;105776;1254;68425;-73
2023/05/25 09:40:12;;;;;;;10.80;3.20;;;;;;;31.93;27.19;100368.11;105969;1254;71382;-75
2023/05/25 09:43:04;;;;;;;7.30;2.70;;;;;;;32.01;26.77;100365.80;105621;1264;59928;-73
2023/05/25 09:45:53;;;;;;;7.80;2.50;;;;;;;31.84;27.03;100361.56;105740;1254;60042;-74
2023/05/25 09:48:42;;;;;;;7.50;2.80;;;;;;;31.82;26.89;100366.31;105716;1255;71439;-74
2023/05/25 09:51:32;;;;;;;8.00;2.80;;;;;;;31.18;27.70;100368.86;105797;1256;66323;-74
2023/05/25 09:54:24;;;;;;;8.30;2.80;;;;;;;30.52;28.58;100365.19;105825;1257;71414;-74
2023/05/25 09:57:13;;;;;;;7.20;3.00;;;;;;;30.81;28.58;100369.37;105784;1256;59844;-74
2023/05/25 10:00:04;;;;;;;7.50;2.70;;;;;;;31.27;27.63;100363.08;106006;1254;61300;-74
2023/05/25 10:02:59;;;;;;;7.60;3.10;;;;;;;31.84;27.14;100356.11;106245;1258;73094;-76
2023/05/25 10:05:48;;;;;;;8.60;3.00;;;;;;;32.40;26.78;100359.92;105802;1257;67719;-74
2023/05/25 10:08:37;;;;;;;9.30;2.60;;;;;;;32.72;26.20;100355.89;105983;1257;71042;-74
2023/05/25 10:11:28;;;;;;;6.90;2.50;;;;;;;32.68;26.24;100362.23;105687;1264;59621;-75
2023/05/25 10:14:24;;;;;;;8.40;2.80;;;;;;;32.51;26.79;100359.44;105387;1262;60410;-73
2023/05/25 10:17:23;;;;;;;7.30;2.50;;;;;;;32.76;26.73;100360.67;105811;1263;73084;-74
2023/05/25 10:20:14;;;;;;;8.20;2.60;;;;;;;33.10;25.58;100364.02;105467;1262;67618;-75
2023/05/25 10:23:13;;;;;;;8.10;3.00;;;;;;;33.21;25.17;100366.99;105563;1262;72940;-74
2023/05/25 10:26:04;;;;;;;7.40;2.90;;;;;;;33.45;25.10;100363.94;105494;1258;59740;-71
2023/05/25 10:29:03;;;;;;;8.10;2.60;;;;;;;33.55;24.85;100367.09;105482;1259;60089;-73
2023/05/25 10:31:53;;;;;;;7.00;3.00;;;;;;;33.75;24.70;100365.92;105485;1259;71756;-72
2023/05/25 10:34:41;;;;;;;6.20;2.70;;;;;;;33.86;24.65;100372.61;105433;1259;68103;-73
2023/05/25 10:37:30;;;;;;;7.70;3.00;;;;;;;33.89;24.84;100366.29;105498;1258;73610;-75
2023/05/25 10:40:23;;;;;;;9.40;3.00;;;;;;;34.04;24.52;100371.05;105726;1258;59813;-74
2023/05/25 10:43:12;;;;;;;7.30;2.60;;;;;;;34.08;24.08;100373.66;105672;1256;59710;-74
2023/05/25 10:46:00;;;;;;;7.20;3.00;;;;;;;33.57;24.28;100375.29;105804;1257;73095;-73
2023/05/25 10:48:51;;;;;;;7.30;2.90;;;;;;;34.02;24.14;100371.48;105507;1256;67808;-74
2023/05/25 10:51:40;;;;;;;8.40;2.90;;;;;;;33.89;24.20;100377.79;106035;1256;72442;-76
2023/05/25 10:54:38;;;;;;;8.90;3.00;;;;;;;33.48;24.76;100377.36;106523;1254;59725;-74
2023/05/25 10:57:27;;;;;;;7.40;2.90;;;;;;;33.34;24.35;100373.90;107054;1257;59527;-71
2023/05/25 11:00:18;;;;;;;7.00;3.10;;;;;;;33.43;24.65;100375.34;106023;1254;72799;-73
2023/05/25 11:03:07;;;;;;;8.70;3.00;;;;;;;33.20;24.79;100364.34;105840;1258;67653;-75
2023/05/25 11:05:55;;;;;;;7.00;2.80;;;;;;;33.26;24.59;100363.63;105692;1256;72013;-73
2023/05/25 11:09:04;;;;;;;7.70;2.80;;;;;;;33.23;24.61;100365.68;105627;1257;59748;-74
2023/05/25 11:11:54;;;;;;;7.40;3.20;;;;;;;32.93;24.68;100367.39;105736;1254;60385;-74
2023/05/25 11:14:43;;;;;;;7.30;2.90;;;;;;;32.17;25.90;100368.33;105967;1259;74078;-71
2023/05/25 11:17:34;;;;;;;6.90;2.80;;;;;;;31.70;26.59;100368.77;105598;1255;67763;-74
2023/05/25 11:20:28;;;;;;;8.50;3.00;;;;;;;30.69;27.64;100365.02;105778;1254;72835;-76
2023/05/25 11:23:25;;;;;;;7.80;3.20;;;;;;;30.04;28.71;100368.02;105612;1260;59681;-73
2023/05/25 11:26:21;;;;;;;7.00;3.20;;;;;;;29.41;29.67;100369.16;105639;1255;60379;-73
2023/05/25 11:29:15;;;;;;;6.90;3.00;;;;;;;28.51;30.90;100373.67;105568;1259;72850;-74
2023/05/25 11:32:03;;;;;;;9.30;3.20;;;;;;;27.80;32.32;100371.46;105512;1257;67646;-74
2023/05/25 11:34:53;;;;;;;7.00;3.30;;;;;;;27.20;33.23;100373.85;105540;1255;71387;-76
2023/05/25 11:37:48;;;;;;;8.40;3.00;;;;;;;26.79;33.70;100373.90;105593;1262;59659;-73
2023/05/25 11:40:36;;;;;;;7.30;2.90;;;;;;;26.35;34.48;100376.11;105402;1258;59992;-72
2023/05/25 11:43:28;;;;;;;8.90;3.30;;;;;;;25.96;35.17;100371.69;105475;1259;73300;-72
2023/05/25 11:46:18;;;;;;;7.30;3.00;;;;;;;25.55;35.95;100380.83;105516;1257;66380;-72
2023/05/25 11:49:08;;;;;;;8.40;2.90;;;;;;;25.21;36.53;100382.18;105373;1259;71498;-75
2023/05/25 11:51:57;;;;;;;8.20;3.20;;;;;;;24.77;37.26;100385.73;105586;1261;59807;-72
2023/05/25 11:54:46;;;;;;;8.20;3.20;;;;;;;24.30;37.95;100385.20;105311;1261;59631;-75
2023/05/25 11:57:35;;;;;;;9.00;3.20;;;;;;;23.93;38.90;100388.53;105261;1259;72696;-75
2023/05/25 12:00:26;;;;;;;7.80;3.10;;;;;;;23.67;39.39;100389.39;105427;1259;66324;-73
2023/05/25 12:03:51;;;;;;;10.50;3.90;;;;;;;23.44;39.79;100391.52;105334;1258;72815;-72
2023/05/25 12:06:40;;;;;;;7.20;2.90;;;;;;;23.12;40.50;100395.46;105259;1265;59649;-75
2023/05/25 12:09:29;;;;;;;10.10;3.10;;;;;;;22.88;40.81;100395.70;105301;1264;60362;-74
2023/05/25 12:12:18;;;;;;;8.20;3.10;;;;;;;22.76;41.58;100396.77;105389;1266;72081;-74
2023/05/25 12:15:13;;;;;;;9.50;2.90;;;;;;;22.46;42.55;100397.51;105222;1267;66687;-72
2023/05/25 12:18:03;;;;;;;6.70;2.80;;;;;;;22.22;43.49;100400.62;105166;1262;71406;-75
2023/05/25 12:20:52;;;;;;;7.10;2.80;;;;;;;21.97;44.08;100399.40;105149;1262;59623;-75
2023/05/25 12:23:40;;;;;;;8.00;2.90;;;;;;;21.65;44.81;100403.50;105176;1268;59511;-73
2023/05/25 12:26:29;;;;;;;8.10;2.80;;;;;;;21.41;45.71;100404.08;105183;1262;73182;-72
2023/05/25 12:29:17;;;;;;;9.30;3.30;;;;;;;21.23;46.29;100403.30;105112;1263;67771;-73
2023/05/25 12:32:05;;;;;;;7.30;3.00;;;;;;;21.06;46.87;100407.73;105237;1262;71673;-74
2023/05/25 12:35:06;;;;;;;7.00;2.70;;;;;;;20.80;47.26;100406.71;105355;1267;59732;-75
2023/05/25 12:38:12;;;;;;;6.70;2.70;;;;;;;20.81;47.44;100405.92;105497;1264;58995;-74
2023/05/25 12:41:06;;;;;;;9.40;2.70;;;;;;;20.99;47.41;100406.62;105532;1267;73199;-75
2023/05/25 12:43:57;;;;;;;7.30;3.00;;;;;;;21.08;46.90;100405.99;105922;1257;69406;-76
2023/05/25 12:46:51;;;;;;;6.80;2.90;;;;;;;21.18;46.70;100402.63;105889;1258;72780;-74
2023/05/25 12:49:43;;;;;;;8.40;3.20;;;;;;;21.28;46.63;100396.93;106059;1259;59718;-74
2023/05/25 12:52:42;;;;;;;8.50;3.10;;;;;;;21.30;46.47;100394.18;106011;1257;59522;-74
2023/05/25 12:55:34;;;;;;;7.10;2.60;;;;;;;21.36;46.32;100391.67;105768;1254;71739;-76
2023/05/25 12:58:27;;;;;;;8.30;2.80;;;;;;;21.52;46.17;100386.74;105738;1256;67628;-73
2023/05/25 13:01:15;;;;;;;7.40;2.80;;;;;;;21.75;45.99;100386.78;105908;1255;72738;-75